Time;durP1;ratioP1;P1;durP2;ratioP2;P2;SDS_P1;SDS_P2;PMS_P1;PMS_P2;Temp;Humidity;BMP_temperature;BMP_pressure;BME280_temperature;BME280_humidity;BME280_pressure;Samples;Min_cycle;Max_cycle;Signal;HPM_P1;HPM_P2
2022/10/30 00:00:49;;;;;;;;;;;23.70;62.70;;;;;;1564150;74;725;-60
2022/10/30 00:02:51;;;;;;;;;;;23.70;62.60;;;;;;1566144;74;741;-59
2022/10/30 00:04:53;;;;;;;;;;;23.70;62.60;;;;;;1561903;74;1453;-59
2022/10/30 00:06:55;;;;;;;;;;;23.60;62.60;;;;;;1566370;74;1148;-58
2022/10/30 00:08:57;;;;;;;;;;;23.70;62.80;;;;;;1568088;74;700;-60
2022/10/30 00:11:00;;;;;;;;;;;23.70;62.90;;;;;;1564064;74;735;-59
2022/10/30 00:13:02;;;;;;;;;;;23.60;62.70;;;;;;1572256;74;2020;-59
2022/10/30 00:15:04;;;;;;;;;;;23.70;62.80;;;;;;1562627;74;744;-60
2022/10/30 00:17:06;;;;;;;;;;;23.70;62.80;;;;;;1559811;74;1154;-60
2022/10/30 00:19:08;;;;;;;;;;;23.70;62.80;;;;;;1559302;74;1449;-60
2022/10/30 00:21:11;;;;;;;;;;;23.70;62.90;;;;;;1563540;74;1148;-60
2022/10/30 00:23:13;;;;;;;;;;;23.70;62.90;;;;;;1545702;75;702;-59
2022/10/30 00:25:15;;;;;;;;;;;23.70;62.90;;;;;;1554758;75;726;-61
2022/10/30 00:27:17;;;;;;;;;;;23.70;63.00;;;;;;1561317;76;1197;-59
2022/10/30 00:29:19;;;;;;;;;;;23.70;62.90;;;;;;1560258;75;809;-60
2022/10/30 00:31:21;;;;;;;;;;;23.70;63.00;;;;;;1557314;76;703;-59
2022/10/30 00:33:23;;;;;;;;;;;23.60;62.90;;;;;;1554284;75;1952;-59
2022/10/30 00:35:25;;;;;;;;;;;23.70;63.00;;;;;;1559151;75;788;-60
2022/10/30 00:37:26;;;;;;;;;;;23.60;63.00;;;;;;1558953;75;1156;-60
2022/10/30 00:39:28;;;;;;;;;;;23.60;63.00;;;;;;1553035;75;739;-60
2022/10/30 00:41:30;;;;;;;;;;;23.60;63.00;;;;;;1553551;75;727;-59
2022/10/30 00:43:33;;;;;;;;;;;23.60;63.10;;;;;;1536846;75;671;-61
2022/10/30 00:45:35;;;;;;;;;;;23.60;63.10;;;;;;1544871;75;1511;-60
2022/10/30 00:47:38;;;;;;;;;;;23.60;63.10;;;;;;1551611;76;1124;-60
2022/10/30 00:49:41;;;;;;;;;;;23.60;63.20;;;;;;1546054;75;725;-60
2022/10/30 00:51:45;;;;;;;;;;;23.60;63.20;;;;;;1532886;75;710;-59
2022/10/30 00:53:47;;;;;;;;;;;23.60;63.20;;;;;;1547679;75;1931;-60
2022/10/30 00:55:52;;;;;;;;;;;23.60;63.20;;;;;;1549739;75;1133;-60
2022/10/30 00:57:54;;;;;;;;;;;23.50;63.30;;;;;;1550180;75;722;-60
2022/10/30 00:59:56;;;;;;;;;;;23.60;63.30;;;;;;1557579;75;1620;-60
2022/10/30 01:01:58;;;;;;;;;;;23.60;63.40;;;;;;1546246;75;689;-59
2022/10/30 01:04:00;;;;;;;;;;;23.50;63.40;;;;;;1555549;75;659;-59
2022/10/30 01:06:02;;;;;;;;;;;23.60;63.40;;;;;;1543422;76;1160;-59
2022/10/30 01:08:05;;;;;;;;;;;23.60;63.50;;;;;;1557252;75;759;-60
2022/10/30 01:10:07;;;;;;;;;;;23.50;63.50;;;;;;1556801;75;646;-60
2022/10/30 01:12:09;;;;;;;;;;;23.60;63.60;;;;;;1553695;75;664;-60
2022/10/30 01:14:11;;;;;;;;;;;23.50;63.60;;;;;;1550646;76;1943;-60
2022/10/30 01:16:31;;;;;;;;;;;23.50;63.60;;;;;;1547950;75;1134;-60
2022/10/30 01:18:43;;;;;;;;;;;23.50;63.70;;;;;;1555093;75;690;-59
2022/10/30 01:21:03;;;;;;;;;;;23.50;63.70;;;;;;1545841;75;724;-59
2022/10/30 01:23:10;;;;;;;;;;;23.50;63.70;;;;;;1553702;75;691;-60
2022/10/30 01:25:16;;;;;;;;;;;23.50;63.80;;;;;;1538931;76;1849;-58
2022/10/30 01:27:22;;;;;;;;;;;23.50;63.80;;;;;;1545192;75;1860;-60
2022/10/30 01:29:29;;;;;;;;;;;23.50;63.90;;;;;;1543932;75;1616;-60
2022/10/30 01:31:47;;;;;;;;;;;23.50;63.90;;;;;;1556843;75;1937;-60
2022/10/30 01:33:51;;;;;;;;;;;23.50;63.90;;;;;;1544166;75;1930;-60
2022/10/30 01:35:54;;;;;;;;;;;23.50;63.90;;;;;;1549367;75;1150;-58
2022/10/30 01:38:14;;;;;;;;;;;23.50;64.00;;;;;;1537704;75;2053;-60
2022/10/30 01:40:17;;;;;;;;;;;23.60;63.90;;;;;;1545422;74;783;-58
2022/10/30 01:42:37;;;;;;;;;;;23.50;63.80;;;;;;1562852;75;1597;-59
2022/10/30 01:44:38;;;;;;;;;;;23.50;63.70;;;;;;1554593;75;797;-59
2022/10/30 01:46:57;;;;;;;;;;;23.50;63.60;;;;;;1556707;75;1185;-60
2022/10/30 01:49:04;;;;;;;;;;;23.60;63.70;;;;;;1543130;75;1957;-60
2022/10/30 01:51:13;;;;;;;;;;;23.60;63.40;;;;;;1539867;75;2144;-59
2022/10/30 01:53:19;;;;;;;;;;;23.60;63.30;;;;;;1568251;75;1951;-60
2022/10/30 01:55:23;;;;;;;;;;;23.50;63.30;;;;;;1551100;76;1861;-59
2022/10/30 01:57:26;;;;;;;;;;;23.50;63.30;;;;;;1548963;75;1579;-60
2022/10/30 01:59:33;;;;;;;;;;;23.60;63.40;;;;;;1556686;75;1469;-60
2022/10/30 02:01:35;;;;;;;;;;;23.50;63.30;;;;;;1556122;75;782;-61
2022/10/30 02:03:37;;;;;;;;;;;23.50;63.40;;;;;;1550413;75;794;-59
2022/10/30 02:05:43;;;;;;;;;;;23.50;63.50;;;;;;1556579;75;791;-59
2022/10/30 02:07:44;;;;;;;;;;;23.60;63.60;;;;;;1561628;75;813;-60
2022/10/30 02:09:46;;;;;;;;;;;23.60;63.60;;;;;;1554767;75;769;-59
2022/10/30 02:11:48;;;;;;;;;;;23.50;63.50;;;;;;1556372;75;1748;-59
2022/10/30 02:13:50;;;;;;;;;;;23.50;63.50;;;;;;1554500;75;1915;-59
2022/10/30 02:15:52;;;;;;;;;;;23.60;63.50;;;;;;1543563;75;1125;-59
2022/10/30 02:17:55;;;;;;;;;;;23.50;63.70;;;;;;1542042;75;772;-59
2022/10/30 02:19:57;;;;;;;;;;;23.50;63.60;;;;;;1568395;75;926;-59
2022/10/30 02:21:59;;;;;;;;;;;23.50;63.70;;;;;;1562458;75;1023;-60
2022/10/30 02:24:01;;;;;;;;;;;23.50;63.70;;;;;;1545178;75;1538;-60
2022/10/30 02:26:03;;;;;;;;;;;23.50;63.70;;;;;;1553167;75;1189;-59
2022/10/30 02:28:05;;;;;;;;;;;23.50;63.80;;;;;;1543911;75;789;-61
2022/10/30 02:30:07;;;;;;;;;;;23.50;63.70;;;;;;1567469;75;730;-59
2022/10/30 02:32:09;;;;;;;;;;;23.50;63.80;;;;;;1555955;75;775;-60
2022/10/30 02:34:11;;;;;;;;;;;23.40;63.60;;;;;;1557272;75;1930;-58
2022/10/30 02:36:14;;;;;;;;;;;23.50;63.70;;;;;;1554160;74;1142;-60
2022/10/30 02:38:16;;;;;;;;;;;23.50;63.70;;;;;;1555871;75;1325;-60
2022/10/30 02:40:18;;;;;;;;;;;23.50;63.80;;;;;;1555304;75;828;-60
2022/10/30 02:42:22;;;;;;;;;;;23.50;63.80;;;;;;1542009;75;729;-59
2022/10/30 02:44:23;;;;;;;;;;;23.50;63.70;;;;;;1555780;75;1655;-58
2022/10/30 02:46:25;;;;;;;;;;;23.50;63.80;;;;;;1550663;75;1148;-59
2022/10/30 02:48:27;;;;;;;;;;;23.50;63.80;;;;;;1547335;75;788;-60
2022/10/30 02:50:29;;;;;;;;;;;23.50;63.80;;;;;;1547313;75;745;-60
2022/10/30 02:52:31;;;;;;;;;;;23.50;63.80;;;;;;1552707;75;1535;-60
2022/10/30 02:54:33;;;;;;;;;;;23.50;63.80;;;;;;1558234;75;1946;-60
2022/10/30 02:56:35;;;;;;;;;;;23.40;63.70;;;;;;1555165;75;1146;-59
2022/10/30 02:58:37;;;;;;;;;;;23.50;63.80;;;;;;1556435;75;784;-60
2022/10/30 03:00:39;;;;;;;;;;;23.50;63.80;;;;;;1557181;75;711;-60
2022/10/30 03:02:41;;;;;;;;;;;23.50;63.70;;;;;;1554680;75;716;-59
2022/10/30 03:04:43;;;;;;;;;;;23.60;63.60;;;;;;1554510;75;752;-60
2022/10/30 03:06:45;;;;;;;;;;;23.60;63.60;;;;;;1558762;75;1596;-58
2022/10/30 03:08:46;;;;;;;;;;;23.60;63.50;;;;;;1551547;75;653;-57
2022/10/30 03:10:48;;;;;;;;;;;23.60;63.50;;;;;;1558211;74;781;-59
2022/10/30 03:12:50;;;;;;;;;;;23.50;63.50;;;;;;1550749;75;804;-58
2022/10/30 03:14:52;;;;;;;;;;;23.50;63.50;;;;;;1550725;75;1947;-59
2022/10/30 03:16:54;;;;;;;;;;;23.60;63.60;;;;;;1548814;75;1253;-58
2022/10/30 03:18:56;;;;;;;;;;;23.50;63.50;;;;;;1546947;75;713;-57
2022/10/30 03:20:58;;;;;;;;;;;23.60;63.50;;;;;;1552497;75;1523;-58
2022/10/30 03:23:00;;;;;;;;;;;23.60;63.50;;;;;;1553523;75;1067;-61
2022/10/30 03:25:02;;;;;;;;;;;23.60;63.60;;;;;;1556324;75;807;-59
2022/10/30 03:27:04;;;;;;;;;;;23.60;63.60;;;;;;1547996;75;1291;-56
2022/10/30 03:29:06;;;;;;;;;;;23.60;63.50;;;;;;1563116;75;667;-58
2022/10/30 03:31:09;;;;;;;;;;;23.60;63.50;;;;;;1547386;75;728;-60
2022/10/30 03:33:10;;;;;;;;;;;23.60;63.50;;;;;;1547660;75;740;-58
2022/10/30 03:35:12;;;;;;;;;;;23.60;63.50;;;;;;1548317;75;1944;-56
2022/10/30 03:37:14;;;;;;;;;;;23.60;63.50;;;;;;1540956;75;1118;-59
2022/10/30 03:39:16;;;;;;;;;;;23.60;63.50;;;;;;1557370;75;726;-60
2022/10/30 03:41:18;;;;;;;;;;;23.60;63.50;;;;;;1542834;75;742;-59
2022/10/30 03:43:20;;;;;;;;;;;23.60;63.50;;;;;;1548312;75;774;-60
2022/10/30 03:45:22;;;;;;;;;;;23.60;63.40;;;;;;1563722;75;780;-59
2022/10/30 03:47:24;;;;;;;;;;;23.60;63.40;;;;;;1545712;75;1161;-59
2022/10/30 03:49:26;;;;;;;;;;;23.50;63.50;;;;;;1554512;75;1599;-56
2022/10/30 03:51:27;;;;;;;;;;;23.50;63.50;;;;;;1557598;75;736;-59
2022/10/30 03:53:30;;;;;;;;;;;23.50;63.50;;;;;;1557589;75;831;-61
2022/10/30 03:55:31;;;;;;;;;;;23.50;63.50;;;;;;1563322;75;1906;-60
2022/10/30 03:57:35;;;;;;;;;;;23.50;63.60;;;;;;1549830;75;1093;-61
2022/10/30 03:59:37;;;;;;;;;;;23.50;63.60;;;;;;1547870;75;783;-60
2022/10/30 04:01:39;;;;;;;;;;;23.50;63.50;;;;;;1544828;75;762;-59
2022/10/30 04:03:41;;;;;;;;;;;23.50;63.60;;;;;;1553655;75;1546;-57
2022/10/30 04:05:42;;;;;;;;;;;23.50;63.60;;;;;;1544426;75;1235;-60
2022/10/30 04:07:44;;;;;;;;;;;23.50;63.60;;;;;;1542997;75;743;-61
2022/10/30 04:09:46;;;;;;;;;;;23.50;63.70;;;;;;1557776;75;735;-60
2022/10/30 04:11:48;;;;;;;;;;;23.50;63.60;;;;;;1540005;75;686;-59
2022/10/30 04:13:50;;;;;;;;;;;23.50;63.60;;;;;;1569413;75;813;-58
2022/10/30 04:15:52;;;;;;;;;;;23.40;63.60;;;;;;1555600;75;1942;-59
2022/10/30 04:17:54;;;;;;;;;;;23.40;63.60;;;;;;1560337;75;1576;-57
2022/10/30 04:19:56;;;;;;;;;;;23.40;63.70;;;;;;1556170;75;764;-57
2022/10/30 04:21:57;;;;;;;;;;;23.40;63.70;;;;;;1545582;76;788;-56
2022/10/30 04:23:59;;;;;;;;;;;23.50;63.80;;;;;;1554933;76;1071;-58
2022/10/30 04:26:01;;;;;;;;;;;23.30;63.70;;;;;;1544112;76;1198;-60
2022/10/30 04:28:03;;;;;;;;;;;23.40;63.70;;;;;;1532127;76;786;-59
2022/10/30 04:30:06;;;;;;;;;;;23.50;63.80;;;;;;1542851;76;761;-59
2022/10/30 04:32:08;;;;;;;;;;;23.50;63.70;;;;;;1544003;76;1670;-59
2022/10/30 04:34:11;;;;;;;;;;;23.40;63.60;;;;;;1534567;76;1912;-59
2022/10/30 04:36:13;;;;;;;;;;;23.40;63.60;;;;;;1537860;76;1145;-60
2022/10/30 04:38:15;;;;;;;;;;;23.40;63.60;;;;;;1550170;76;781;-57
2022/10/30 04:40:16;;;;;;;;;;;23.40;63.60;;;;;;1536747;75;826;-59
2022/10/30 04:42:18;;;;;;;;;;;23.40;63.80;;;;;;1531820;76;743;-58
2022/10/30 04:44:20;;;;;;;;;;;23.50;63.90;;;;;;1549120;76;822;-60
2022/10/30 04:46:22;;;;;;;;;;;23.50;63.80;;;;;;1544028;76;1691;-60
2022/10/30 04:48:24;;;;;;;;;;;23.50;63.80;;;;;;1540079;76;794;-58
2022/10/30 04:50:26;;;;;;;;;;;23.50;63.80;;;;;;1536266;76;761;-59
2022/10/30 04:52:28;;;;;;;;;;;23.50;63.80;;;;;;1548677;76;735;-61
2022/10/30 04:54:30;;;;;;;;;;;23.50;63.70;;;;;;1544875;76;1954;-58
2022/10/30 04:56:35;;;;;;;;;;;23.50;63.70;;;;;;1545938;76;1097;-59
2022/10/30 04:58:36;;;;;;;;;;;23.50;64.10;;;;;;1543037;76;1554;-61
2022/10/30 05:00:38;;;;;;;;;;;23.60;63.70;;;;;;1548527;76;769;-59
2022/10/30 05:02:40;;;;;;;;;;;23.60;63.50;;;;;;1537763;76;725;-59
2022/10/30 05:04:42;;;;;;;;;;;23.60;63.40;;;;;;1539451;76;781;-59
2022/10/30 05:06:44;;;;;;;;;;;23.60;63.40;;;;;;1546010;76;1142;-58
2022/10/30 05:08:46;;;;;;;;;;;23.70;63.40;;;;;;1545743;76;745;-58
2022/10/30 05:10:48;;;;;;;;;;;23.70;63.40;;;;;;1544345;76;779;-58
2022/10/30 05:12:51;;;;;;;;;;;23.70;63.30;;;;;;1540128;76;1537;-59
2022/10/30 05:14:52;;;;;;;;;;;23.60;63.30;;;;;;1545057;76;1944;-60
2022/10/30 05:16:54;;;;;;;;;;;23.60;63.20;;;;;;1548069;76;1157;-59
2022/10/30 05:18:56;;;;;;;;;;;23.70;63.20;;;;;;1542695;75;829;-61
2022/10/30 05:20:58;;;;;;;;;;;23.70;63.20;;;;;;1536144;76;746;-60
2022/10/30 05:23:00;;;;;;;;;;;23.70;63.40;;;;;;1543925;76;799;-61
2022/10/30 05:25:02;;;;;;;;;;;23.60;63.40;;;;;;1552829;75;1095;-60
2022/10/30 05:27:04;;;;;;;;;;;23.70;63.40;;;;;;1549082;75;1635;-59
2022/10/30 05:29:06;;;;;;;;;;;23.70;63.10;;;;;;1556975;75;791;-59
2022/10/30 05:31:07;;;;;;;;;;;23.70;63.30;;;;;;1551302;75;824;-58
2022/10/30 05:33:10;;;;;;;;;;;23.70;63.20;;;;;;1555308;75;756;-60
2022/10/30 05:35:12;;;;;;;;;;;23.70;63.40;;;;;;1554987;75;1913;-57
2022/10/30 05:37:14;;;;;;;;;;;23.70;63.30;;;;;;1553843;75;1120;-60
2022/10/30 05:39:15;;;;;;;;;;;23.70;63.00;;;;;;1552868;75;791;-60
2022/10/30 05:41:17;;;;;;;;;;;23.80;63.00;;;;;;1550915;75;1560;-60
2022/10/30 05:43:19;;;;;;;;;;;23.70;63.10;;;;;;1548908;75;748;-60
2022/10/30 05:45:21;;;;;;;;;;;23.70;63.50;;;;;;1544628;75;770;-60
2022/10/30 05:47:23;;;;;;;;;;;23.60;63.30;;;;;;1558786;75;1157;-59
2022/10/30 05:49:25;;;;;;;;;;;23.70;63.40;;;;;;1554894;74;775;-57
2022/10/30 05:51:27;;;;;;;;;;;23.80;63.40;;;;;;1551288;75;756;-61
2022/10/30 05:53:28;;;;;;;;;;;23.80;63.30;;;;;;1555095;75;780;-59
2022/10/30 05:55:31;;;;;;;;;;;23.90;63.20;;;;;;1551779;75;1924;-59
2022/10/30 05:57:32;;;;;;;;;;;23.90;63.10;;;;;;1552200;75;1099;-58
2022/10/30 05:59:34;;;;;;;;;;;24.00;62.70;;;;;;1557627;75;781;-60
2022/10/30 06:01:36;;;;;;;;;;;24.10;62.40;;;;;;1561803;75;667;-59
2022/10/30 06:03:38;;;;;;;;;;;24.00;62.10;;;;;;1575004;75;804;-57
2022/10/30 06:05:40;;;;;;;;;;;24.00;62.10;;;;;;1551478;75;745;-59
2022/10/30 06:07:42;;;;;;;;;;;24.00;62.00;;;;;;1553517;75;829;-60
2022/10/30 06:09:44;;;;;;;;;;;24.00;62.00;;;;;;1549673;76;1566;-61
2022/10/30 06:11:45;;;;;;;;;;;23.90;62.10;;;;;;1555851;75;777;-59
2022/10/30 06:13:47;;;;;;;;;;;23.90;62.20;;;;;;1547160;75;790;-60
2022/10/30 06:15:49;;;;;;;;;;;23.80;62.30;;;;;;1553413;75;1917;-59
2022/10/30 06:17:51;;;;;;;;;;;23.70;62.40;;;;;;1560369;75;609;-57
2022/10/30 06:19:53;;;;;;;;;;;23.70;62.40;;;;;;1559302;75;824;-59
2022/10/30 06:21:55;;;;;;;;;;;23.70;62.50;;;;;;1557702;75;749;-60
2022/10/30 06:23:57;;;;;;;;;;;23.60;62.50;;;;;;1558863;75;1497;-59
2022/10/30 06:25:59;;;;;;;;;;;23.60;62.50;;;;;;1564171;74;1186;-57
2022/10/30 06:28:01;;;;;;;;;;;23.60;62.60;;;;;;1575893;74;790;-57
2022/10/30 06:30:03;;;;;;;;;;;23.70;62.80;;;;;;1575264;74;722;-60
2022/10/30 06:32:05;;;;;;;;;;;23.60;62.70;;;;;;1579815;74;709;-59
2022/10/30 06:34:07;;;;;;;;;;;23.60;62.70;;;;;;1567771;74;773;-59
2022/10/30 06:36:09;;;;;;;;;;;23.50;62.80;;;;;;1574327;74;1943;-57
2022/10/30 06:38:11;;;;;;;;;;;23.50;62.70;;;;;;1566760;74;1400;-59
2022/10/30 06:40:13;;;;;;;;;;;23.50;62.80;;;;;;1557503;74;765;-57
2022/10/30 06:42:14;;;;;;;;;;;23.60;62.80;;;;;;1553170;74;724;-60
2022/10/30 06:44:17;;;;;;;;;;;23.50;62.90;;;;;;1568968;74;735;-61
2022/10/30 06:46:19;;;;;;;;;;;23.50;62.90;;;;;;1566297;74;1164;-61
2022/10/30 06:48:20;;;;;;;;;;;23.50;62.90;;;;;;1567900;74;742;-59
2022/10/30 06:50:23;;;;;;;;;;;23.50;62.80;;;;;;1554649;74;775;-60
2022/10/30 06:52:25;;;;;;;;;;;23.60;62.60;;;;;;1561847;74;1540;-60
2022/10/30 06:54:27;;;;;;;;;;;23.60;62.40;;;;;;1562826;74;718;-60
2022/10/30 06:56:28;;;;;;;;;;;23.70;62.50;;;;;;1574247;74;1938;-59
2022/10/30 06:58:30;;;;;;;;;;;23.70;62.50;;;;;;1571850;74;756;-59
2022/10/30 07:00:32;;;;;;;;;;;23.60;62.50;;;;;;1564472;74;822;-57
2022/10/30 07:02:34;;;;;;;;;;;23.70;62.70;;;;;;1563407;74;883;-59
2022/10/30 07:04:36;;;;;;;;;;;23.60;62.60;;;;;;1573760;74;703;-58
2022/10/30 07:06:38;;;;;;;;;;;23.60;62.70;;;;;;1571858;74;1545;-61
2022/10/30 07:08:40;;;;;;;;;;;23.70;62.60;;;;;;1552624;74;712;-59
2022/10/30 07:10:42;;;;;;;;;;;23.70;62.50;;;;;;1571453;74;706;-60
2022/10/30 07:12:45;;;;;;;;;;;23.70;62.40;;;;;;1569223;74;597;-59
2022/10/30 07:14:47;;;;;;;;;;;23.70;62.40;;;;;;1554426;74;1749;-60
2022/10/30 07:16:49;;;;;;;;;;;23.60;62.30;;;;;;1569360;74;1942;-60
2022/10/30 07:18:51;;;;;;;;;;;23.60;62.50;;;;;;1555931;74;757;-59
2022/10/30 07:20:55;;;;;;;;;;;23.60;62.50;;;;;;1565246;74;1392;-60
2022/10/30 07:22:57;;;;;;;;;;;23.60;62.50;;;;;;1562654;74;666;-60
2022/10/30 07:24:59;;;;;;;;;;;23.60;62.50;;;;;;1564844;74;1136;-60
2022/10/30 07:27:01;;;;;;;;;;;23.60;62.40;;;;;;1558617;74;1192;-62
2022/10/30 07:29:03;;;;;;;;;;;23.60;62.50;;;;;;1565750;74;757;-59
2022/10/30 07:31:05;;;;;;;;;;;23.60;62.40;;;;;;1560116;74;810;-60
2022/10/30 07:33:07;;;;;;;;;;;23.50;62.50;;;;;;1560967;74;718;-59
2022/10/30 07:35:09;;;;;;;;;;;23.60;62.40;;;;;;1531835;76;1601;-58
2022/10/30 07:37:11;;;;;;;;;;;23.60;62.50;;;;;;1513213;76;1946;-57
2022/10/30 07:39:13;;;;;;;;;;;23.60;62.40;;;;;;1500228;77;751;-59
2022/10/30 07:41:15;;;;;;;;;;;23.50;62.30;;;;;;1506470;77;808;-58
2022/10/30 07:43:17;;;;;;;;;;;23.50;62.30;;;;;;1495666;77;1269;-59
2022/10/30 07:45:19;;;;;;;;;;;23.60;62.20;;;;;;1498884;77;752;-61
2022/10/30 07:47:20;;;;;;;;;;;23.50;62.30;;;;;;1503009;78;1159;-59
2022/10/30 07:49:22;;;;;;;;;;;23.50;62.30;;;;;;1558014;74;739;-60
2022/10/30 07:51:24;;;;;;;;;;;23.50;62.30;;;;;;1564175;74;835;-58
2022/10/30 07:53:26;;;;;;;;;;;23.50;62.30;;;;;;1567667;74;810;-60
2022/10/30 07:55:28;;;;;;;;;;;23.50;62.20;;;;;;1550940;74;1914;-60
2022/10/30 07:57:36;;;;;;;;;;;23.50;62.10;;;;;;1566625;74;1101;-60
2022/10/30 07:59:38;;;;;;;;;;;23.50;62.10;;;;;;1566624;74;729;-59
2022/10/30 08:01:40;;;;;;;;;;;23.50;62.10;;;;;;1559990;74;1522;-60
2022/10/30 08:03:42;;;;;;;;;;;23.60;62.00;;;;;;1549506;74;759;-60
2022/10/30 08:05:44;;;;;;;;;;;23.60;61.60;;;;;;1551525;74;1084;-59
2022/10/30 08:07:46;;;;;;;;;;;23.70;61.60;;;;;;1563845;74;893;-58
2022/10/30 08:09:48;;;;;;;;;;;23.80;61.40;;;;;;1562555;74;742;-57
2022/10/30 08:11:50;;;;;;;;;;;23.90;61.30;;;;;;1565496;74;813;-58
2022/10/30 08:13:52;;;;;;;;;;;23.90;61.00;;;;;;1565180;74;654;-58
2022/10/30 08:15:54;;;;;;;;;;;23.90;61.00;;;;;;1556405;74;1935;-58
2022/10/30 08:17:56;;;;;;;;;;;24.00;60.80;;;;;;1571618;74;780;-58
2022/10/30 08:19:57;;;;;;;;;;;23.90;60.80;;;;;;1569887;74;763;-58
2022/10/30 08:22:01;;;;;;;;;;;24.00;60.70;;;;;;1579882;74;802;-58
2022/10/30 08:24:03;;;;;;;;;;;24.00;60.60;;;;;;1562461;74;773;-58
2022/10/30 08:26:04;;;;;;;;;;;24.00;60.50;;;;;;1543547;74;1163;-60
2022/10/30 08:28:06;;;;;;;;;;;24.00;60.40;;;;;;1544518;75;731;-61
2022/10/30 08:30:09;;;;;;;;;;;24.00;60.40;;;;;;1547185;75;1559;-59
2022/10/30 08:32:10;;;;;;;;;;;24.00;60.40;;;;;;1555585;76;784;-59
2022/10/30 08:34:12;;;;;;;;;;;24.10;60.40;;;;;;1564929;75;708;-60
2022/10/30 08:36:14;;;;;;;;;;;24.10;60.40;;;;;;1549776;75;1940;-57
2022/10/30 08:38:16;;;;;;;;;;;24.10;60.30;;;;;;1571704;75;830;-56
2022/10/30 08:40:18;;;;;;;;;;;24.10;60.30;;;;;;1568351;75;784;-58
2022/10/30 08:42:20;;;;;;;;;;;24.10;60.00;;;;;;1564116;75;762;-58
2022/10/30 08:44:22;;;;;;;;;;;24.20;59.60;;;;;;1542170;75;1533;-61
2022/10/30 08:46:24;;;;;;;;;;;24.20;59.80;;;;;;1554962;75;1141;-59
2022/10/30 08:48:25;;;;;;;;;;;24.20;59.40;;;;;;1544264;75;823;-59
2022/10/30 08:50:27;;;;;;;;;;;24.30;59.00;;;;;;1540964;75;852;-59
2022/10/30 08:52:29;;;;;;;;;;;24.30;58.60;;;;;;1546409;75;763;-59
2022/10/30 08:54:31;;;;;;;;;;;24.20;58.20;;;;;;1556919;75;793;-60
2022/10/30 08:56:33;;;;;;;;;;;24.30;58.10;;;;;;1559476;76;1959;-60
2022/10/30 08:58:35;;;;;;;;;;;24.30;57.80;;;;;;1558492;75;1494;-59
2022/10/30 09:00:37;;;;;;;;;;;24.20;57.50;;;;;;1560445;75;767;-60
2022/10/30 09:02:39;;;;;;;;;;;24.20;57.30;;;;;;1544340;76;673;-59
2022/10/30 09:04:41;;;;;;;;;;;24.20;57.40;;;;;;1571809;75;767;-57
2022/10/30 09:06:43;;;;;;;;;;;24.20;57.50;;;;;;1551583;75;1136;-59
2022/10/30 09:08:45;;;;;;;;;;;24.20;57.50;;;;;;1544577;76;772;-58
2022/10/30 09:10:47;;;;;;;;;;;24.20;57.50;;;;;;1559599;75;855;-57
2022/10/30 09:12:51;;;;;;;;;;;24.20;57.60;;;;;;1553106;75;1528;-59
2022/10/30 09:14:52;;;;;;;;;;;24.30;57.80;;;;;;1549540;75;1811;-61
2022/10/30 09:16:54;;;;;;;;;;;24.30;57.40;;;;;;1557037;75;1936;-61
2022/10/30 09:18:56;;;;;;;;;;;24.30;57.10;;;;;;1564962;75;661;-59
2022/10/30 09:20:58;;;;;;;;;;;24.30;57.20;;;;;;1576871;75;747;-60
2022/10/30 09:23:00;;;;;;;;;;;24.20;57.00;;;;;;1561627;75;775;-58
2022/10/30 09:25:02;;;;;;;;;;;24.30;57.00;;;;;;1555892;75;696;-56
2022/10/30 09:27:04;;;;;;;;;;;24.30;57.10;;;;;;1545406;75;1508;-61
2022/10/30 09:29:05;;;;;;;;;;;24.30;57.10;;;;;;1566345;75;733;-59
2022/10/30 09:31:07;;;;;;;;;;;24.30;57.20;;;;;;1551943;75;764;-59
2022/10/30 09:33:09;;;;;;;;;;;24.30;57.30;;;;;;1560462;75;799;-60
2022/10/30 09:35:11;;;;;;;;;;;24.40;57.30;;;;;;1548817;75;706;-60
2022/10/30 09:37:13;;;;;;;;;;;24.30;57.30;;;;;;1563753;75;1936;-58
2022/10/30 09:39:15;;;;;;;;;;;24.30;57.20;;;;;;1573262;75;718;-59
2022/10/30 09:41:19;;;;;;;;;;;24.30;57.40;;;;;;1553393;75;1510;-56
2022/10/30 09:43:32;;;;;;;;;;;24.30;56.70;;;;;;1569818;75;2162;-58
2022/10/30 09:45:35;;;;;;;;;;;24.30;56.80;;;;;;1566736;75;840;-60
2022/10/30 09:47:55;;;;;;;;;;;24.40;56.70;;;;;;1562204;75;1936;-60
2022/10/30 09:50:02;;;;;;;;;;;24.40;56.60;;;;;;1561182;75;867;-59
2022/10/30 09:52:08;;;;;;;;;;;24.50;56.60;;;;;;1567958;75;818;-58
2022/10/30 09:54:11;;;;;;;;;;;24.40;56.50;;;;;;1563623;75;1511;-57
2022/10/30 09:56:18;;;;;;;;;;;24.50;56.70;;;;;;1558581;75;1951;-60
2022/10/30 09:58:27;;;;;;;;;;;24.40;56.60;;;;;;1557208;75;1764;-59
2022/10/30 10:00:37;;;;;;;;;;;24.30;56.70;;;;;;1551292;75;1972;-60
2022/10/30 10:02:46;;;;;;;;;;;24.30;56.90;;;;;;1550786;75;1684;-57
2022/10/30 10:04:49;;;;;;;;;;;24.20;57.10;;;;;;1506370;75;1039;-60
2022/10/30 10:06:53;;;;;;;;;;;24.20;57.30;;;;;;1567187;75;1098;-58
2022/10/30 10:08:56;;;;;;;;;;;24.20;57.30;;;;;;1567467;75;1492;-60
2022/10/30 10:10:59;;;;;;;;;;;24.20;57.50;;;;;;1563614;75;723;-59
2022/10/30 10:13:01;;;;;;;;;;;24.30;57.30;;;;;;1560764;75;767;-59
2022/10/30 10:15:05;;;;;;;;;;;24.30;57.10;;;;;;1556352;75;746;-60
2022/10/30 10:17:08;;;;;;;;;;;24.40;56.90;;;;;;1562865;75;1959;-60
2022/10/30 10:19:20;;;;;;;;;;;24.40;56.80;;;;;;1561391;75;1909;-59
2022/10/30 10:21:25;;;;;;;;;;;24.40;56.70;;;;;;1556563;75;760;-57
2022/10/30 10:23:28;;;;;;;;;;;24.40;56.80;;;;;;1559613;75;1574;-59
2022/10/30 10:25:30;;;;;;;;;;;24.40;56.60;;;;;;1562987;75;1988;-58
2022/10/30 10:27:46;;;;;;;;;;;24.50;56.50;;;;;;1562115;74;1148;-60
2022/10/30 10:29:49;;;;;;;;;;;24.40;56.40;;;;;;1567575;74;702;-60
2022/10/30 10:31:59;;;;;;;;;;;24.50;56.30;;;;;;1576667;74;2086;-59
2022/10/30 10:34:02;;;;;;;;;;;24.50;56.50;;;;;;1545473;74;764;-61
2022/10/30 10:36:18;;;;;;;;;;;24.50;56.50;;;;;;1558142;74;1888;-57
2022/10/30 10:38:27;;;;;;;;;;;24.50;56.40;;;;;;1565645;74;1515;-60
2022/10/30 10:40:47;;;;;;;;;;;24.50;56.30;;;;;;1555124;74;2459;-61
2022/10/30 10:43:03;;;;;;;;;;;24.40;56.40;;;;;;1574886;74;788;-60
2022/10/30 10:45:15;;;;;;;;;;;24.40;56.70;;;;;;1570016;74;775;-60
2022/10/30 10:47:31;;;;;;;;;;;24.40;56.70;;;;;;1565205;74;1027;-61
2022/10/30 10:49:45;;;;;;;;;;;24.40;56.70;;;;;;1561038;74;1485;-61
2022/10/30 10:51:49;;;;;;;;;;;24.50;56.60;;;;;;1568422;74;1578;-60
2022/10/30 10:53:52;;;;;;;;;;;24.50;56.50;;;;;;1567851;74;783;-60
2022/10/30 10:55:56;;;;;;;;;;;24.50;56.40;;;;;;1568966;74;1182;-60
2022/10/30 10:57:59;;;;;;;;;;;24.50;56.30;;;;;;1565446;74;1940;-60
2022/10/30 11:00:04;;;;;;;;;;;24.50;56.30;;;;;;1575215;74;754;-60
2022/10/30 11:02:11;;;;;;;;;;;24.40;57.00;;;;;;1564945;74;736;-61
2022/10/30 11:04:33;;;;;;;;;;;24.40;57.10;;;;;;1562970;74;776;-60
2022/10/30 11:06:35;;;;;;;;;;;24.50;57.20;;;;;;1559082;74;1803;-60
2022/10/30 11:08:37;;;;;;;;;;;24.50;57.00;;;;;;1574808;74;754;-60
2022/10/30 11:10:39;;;;;;;;;;;24.50;56.90;;;;;;1570384;74;764;-59
2022/10/30 11:12:41;;;;;;;;;;;24.60;56.90;;;;;;1574973;74;822;-59
2022/10/30 11:14:43;;;;;;;;;;;24.50;56.90;;;;;;1572869;74;788;-58
2022/10/30 11:17:05;;;;;;;;;;;24.50;56.80;;;;;;1554368;74;1937;-60
2022/10/30 11:19:07;;;;;;;;;;;24.50;56.90;;;;;;1557858;74;1420;-61
2022/10/30 11:21:10;;;;;;;;;;;24.50;56.80;;;;;;1567017;74;764;-60
2022/10/30 11:23:30;;;;;;;;;;;24.50;56.80;;;;;;1569454;74;713;-62
2022/10/30 11:25:35;;;;;;;;;;;24.60;56.70;;;;;;1571373;74;743;-60
2022/10/30 11:27:37;;;;;;;;;;;24.60;56.70;;;;;;1556023;74;1120;-60
2022/10/30 11:29:39;;;;;;;;;;;24.60;56.60;;;;;;1550198;76;720;-60
2022/10/30 11:31:41;;;;;;;;;;;24.60;56.50;;;;;;1539838;76;724;-60
2022/10/30 11:33:43;;;;;;;;;;;24.60;56.50;;;;;;1546162;76;1534;-61
2022/10/30 11:35:45;;;;;;;;;;;24.60;56.50;;;;;;1548843;76;1184;-61
2022/10/30 11:37:50;;;;;;;;;;;24.60;56.50;;;;;;1536609;75;1933;-60
2022/10/30 11:39:54;;;;;;;;;;;24.60;56.40;;;;;;1558427;76;717;-62
2022/10/30 11:41:57;;;;;;;;;;;24.60;56.50;;;;;;1547282;76;1116;-61
2022/10/30 11:43:59;;;;;;;;;;;24.50;56.50;;;;;;1543925;76;777;-61
2022/10/30 11:46:01;;;;;;;;;;;24.50;56.50;;;;;;1542879;76;1150;-60
2022/10/30 11:48:04;;;;;;;;;;;24.50;56.40;;;;;;1541617;76;1586;-60
2022/10/30 11:50:06;;;;;;;;;;;24.50;56.50;;;;;;1534498;76;1353;-60
2022/10/30 11:52:08;;;;;;;;;;;24.40;56.30;;;;;;1548674;76;692;-60
2022/10/30 11:54:11;;;;;;;;;;;24.50;56.30;;;;;;1543385;76;791;-60
2022/10/30 11:56:14;;;;;;;;;;;24.50;56.30;;;;;;1547032;76;1481;-61
2022/10/30 11:58:23;;;;;;;;;;;24.50;56.30;;;;;;1535990;76;1926;-61
2022/10/30 12:00:29;;;;;;;;;;;24.50;56.20;;;;;;1540514;76;627;-61
2022/10/30 12:02:31;;;;;;;;;;;24.50;56.30;;;;;;1539859;76;733;-61
2022/10/30 12:04:33;;;;;;;;;;;24.40;56.00;;;;;;1532124;76;942;-61
2022/10/30 12:06:35;;;;;;;;;;;24.40;56.00;;;;;;1545076;76;1157;-60
2022/10/30 12:08:37;;;;;;;;;;;24.50;56.00;;;;;;1546301;76;744;-60
2022/10/30 12:10:40;;;;;;;;;;;24.40;56.00;;;;;;1538801;76;732;-59
2022/10/30 12:12:42;;;;;;;;;;;24.40;55.80;;;;;;1545498;76;720;-61
2022/10/30 12:14:44;;;;;;;;;;;24.40;55.90;;;;;;1535100;76;1563;-61